sensor_id;sensor_type;location;lat;lon;timestamp;temperature;humidity
44731;DHT22;30458;47.448;19.032;2023-12-07T00:01:24;3.60;99.90
44731;DHT22;30458;47.448;19.032;2023-12-07T00:11:25;3.70;99.90
44731;DHT22;30458;47.448;19.032;2023-12-07T00:21:26;3.80;99.90
44731;DHT22;30458;47.448;19.032;2023-12-07T00:31:26;3.70;99.90
44731;DHT22;30458;47.448;19.032;2023-12-07T00:41:27;3.70;99.90
44731;DHT22;30458;47.448;19.032;2023-12-07T00:51:31;3.60;99.90
44731;DHT22;30458;47.448;19.032;2023-12-07T01:01:32;3.50;99.90
44731;DHT22;30458;47.448;19.032;2023-12-07T01:11:32;3.30;99.90
44731;DHT22;30458;47.448;19.032;2023-12-07T01:21:33;3.30;99.90
44731;DHT22;30458;47.448;19.032;2023-12-07T01:31:37;3.40;99.90
44731;DHT22;30458;47.448;19.032;2023-12-07T01:41:38;3.50;99.90
44731;DHT22;30458;47.448;19.032;2023-12-07T01:51:39;3.60;99.90
44731;DHT22;30458;47.448;19.032;2023-12-07T02:01:40;3.70;99.90
44731;DHT22;30458;47.448;19.032;2023-12-07T02:11:41;3.70;99.90
44731;DHT22;30458;47.448;19.032;2023-12-07T02:21:48;3.80;99.90
44731;DHT22;30458;47.448;19.032;2023-12-07T02:31:54;3.70;99.90
44731;DHT22;30458;47.448;19.032;2023-12-07T02:41:56;3.70;99.90
44731;DHT22;30458;47.448;19.032;2023-12-07T02:52:01;3.80;99.90
44731;DHT22;30458;47.448;19.032;2023-12-07T03:02:05;3.80;99.90
44731;DHT22;30458;47.448;19.032;2023-12-07T03:12:08;3.80;99.90
44731;DHT22;30458;47.448;19.032;2023-12-07T03:22:09;3.70;99.90
44731;DHT22;30458;47.448;19.032;2023-12-07T03:32:12;3.70;99.90
44731;DHT22;30458;47.448;19.032;2023-12-07T03:42:13;3.70;99.90
44731;DHT22;30458;47.448;19.032;2023-12-07T03:52:14;3.80;99.90
44731;DHT22;30458;47.448;19.032;2023-12-07T04:02:14;3.70;99.90
44731;DHT22;30458;47.448;19.032;2023-12-07T04:12:15;3.60;99.90
44731;DHT22;30458;47.448;19.032;2023-12-07T04:22:18;3.50;99.90
44731;DHT22;30458;47.448;19.032;2023-12-07T04:32:19;3.50;99.90
44731;DHT22;30458;47.448;19.032;2023-12-07T04:42:22;3.50;99.90
44731;DHT22;30458;47.448;19.032;2023-12-07T04:52:25;3.40;99.90
44731;DHT22;30458;47.448;19.032;2023-12-07T05:02:26;3.30;99.90
44731;DHT22;30458;47.448;19.032;2023-12-07T05:12:28;3.20;99.90
44731;DHT22;30458;47.448;19.032;2023-12-07T05:22:29;3.30;99.90
44731;DHT22;30458;47.448;19.032;2023-12-07T05:32:29;3.40;99.90
44731;DHT22;30458;47.448;19.032;2023-12-07T05:42:33;3.40;99.90
44731;DHT22;30458;47.448;19.032;2023-12-07T05:52:37;3.40;99.90
44731;DHT22;30458;47.448;19.032;2023-12-07T06:02:37;3.40;99.90
44731;DHT22;30458;47.448;19.032;2023-12-07T06:12:38;3.50;99.90
44731;DHT22;30458;47.448;19.032;2023-12-07T06:22:39;3.70;99.90
44731;DHT22;30458;47.448;19.032;2023-12-07T06:32:42;3.80;99.90
44731;DHT22;30458;47.448;19.032;2023-12-07T06:42:45;3.80;99.90
44731;DHT22;30458;47.448;19.032;2023-12-07T06:52:46;3.90;99.90
44731;DHT22;30458;47.448;19.032;2023-12-07T07:02:47;3.80;99.90
44731;DHT22;30458;47.448;19.032;2023-12-07T07:12:48;3.70;99.90
44731;DHT22;30458;47.448;19.032;2023-12-07T07:22:48;3.80;99.90
44731;DHT22;30458;47.448;19.032;2023-12-07T07:32:50;3.90;99.90
44731;DHT22;30458;47.448;19.032;2023-12-07T07:42:55;3.90;99.90
44731;DHT22;30458;47.448;19.032;2023-12-07T07:52:58;3.90;99.90
44731;DHT22;30458;47.448;19.032;2023-12-07T08:03:02;3.80;99.90
44731;DHT22;30458;47.448;19.032;2023-12-07T08:13:03;3.80;99.90
44731;DHT22;30458;47.448;19.032;2023-12-07T08:23:04;3.90;99.90
44731;DHT22;30458;47.448;19.032;2023-12-07T08:33:05;4.00;99.90
44731;DHT22;30458;47.448;19.032;2023-12-07T08:43:05;3.90;99.90
44731;DHT22;30458;47.448;19.032;2023-12-07T08:53:06;3.90;99.90
44731;DHT22;30458;47.448;19.032;2023-12-07T09:03:07;3.80;99.90
44731;DHT22;30458;47.448;19.032;2023-12-07T09:13:08;3.90;99.90
44731;DHT22;30458;47.448;19.032;2023-12-07T09:23:11;4.10;99.90
44731;DHT22;30458;47.448;19.032;2023-12-07T09:33:12;4.40;99.90
44731;DHT22;30458;47.448;19.032;2023-12-07T09:43:13;4.60;99.90
44731;DHT22;30458;47.448;19.032;2023-12-07T09:53:14;4.60;99.90
44731;DHT22;30458;47.448;19.032;2023-12-07T10:03:22;4.50;99.90
44731;DHT22;30458;47.448;19.032;2023-12-07T10:13:23;4.70;99.90
44731;DHT22;30458;47.448;19.032;2023-12-07T10:23:23;4.50;99.90
44731;DHT22;30458;47.448;19.032;2023-12-07T10:33:26;4.50;99.90
44731;DHT22;30458;47.448;19.032;2023-12-07T10:43:27;4.60;99.90
44731;DHT22;30458;47.448;19.032;2023-12-07T10:53:34;4.80;99.90
44731;DHT22;30458;47.448;19.032;2023-12-07T11:03:41;4.90;99.90
44731;DHT22;30458;47.448;19.032;2023-12-07T11:14:07;4.90;99.90
44731;DHT22;30458;47.448;19.032;2023-12-07T11:24:16;4.90;99.90
44731;DHT22;30458;47.448;19.032;2023-12-07T11:34:39;4.90;99.90
44731;DHT22;30458;47.448;19.032;2023-12-07T11:44:44;4.90;99.90
44731;DHT22;30458;47.448;19.032;2023-12-07T11:54:48;4.90;99.90
44731;DHT22;30458;47.448;19.032;2023-12-07T12:04:52;4.90;99.90
44731;DHT22;30458;47.448;19.032;2023-12-07T12:14:54;4.80;99.90
44731;DHT22;30458;47.448;19.032;2023-12-07T12:24:57;4.70;99.90
44731;DHT22;30458;47.448;19.032;2023-12-07T12:34:59;4.70;99.90
44731;DHT22;30458;47.448;19.032;2023-12-07T12:45:00;4.70;99.90
44731;DHT22;30458;47.448;19.032;2023-12-07T12:55:07;4.60;99.90
44731;DHT22;30458;47.448;19.032;2023-12-07T13:05:08;4.50;99.90
44731;DHT22;30458;47.448;19.032;2023-12-07T13:15:09;4.30;99.90
44731;DHT22;30458;47.448;19.032;2023-12-07T13:25:12;4.40;99.90
44731;DHT22;30458;47.448;19.032;2023-12-07T13:35:15;4.50;99.90
44731;DHT22;30458;47.448;19.032;2023-12-07T13:45:18;4.40;99.90
44731;DHT22;30458;47.448;19.032;2023-12-07T13:55:21;4.30;99.90
44731;DHT22;30458;47.448;19.032;2023-12-07T14:05:23;4.10;99.90
44731;DHT22;30458;47.448;19.032;2023-12-07T14:15:27;4.00;99.90
44731;DHT22;30458;47.448;19.032;2023-12-07T14:25:28;4.10;99.90
44731;DHT22;30458;47.448;19.032;2023-12-07T14:35:29;4.20;99.90
44731;DHT22;30458;47.448;19.032;2023-12-07T14:45:29;4.30;99.90
44731;DHT22;30458;47.448;19.032;2023-12-07T14:55:30;4.30;99.90
44731;DHT22;30458;47.448;19.032;2023-12-07T15:05:33;4.30;99.90
44731;DHT22;30458;47.448;19.032;2023-12-07T15:15:34;4.30;99.90
44731;DHT22;30458;47.448;19.032;2023-12-07T15:25:38;4.30;99.90
44731;DHT22;30458;47.448;19.032;2023-12-07T15:35:42;4.30;99.90
44731;DHT22;30458;47.448;19.032;2023-12-07T15:45:43;4.40;99.90
44731;DHT22;30458;47.448;19.032;2023-12-07T15:55:44;4.40;99.90
44731;DHT22;30458;47.448;19.032;2023-12-07T16:05:45;4.30;99.90
44731;DHT22;30458;47.448;19.032;2023-12-07T16:15:46;4.30;99.90
44731;DHT22;30458;47.448;19.032;2023-12-07T16:25:49;4.30;99.90
44731;DHT22;30458;47.448;19.032;2023-12-07T16:35:53;4.30;99.90
44731;DHT22;30458;47.448;19.032;2023-12-07T16:45:55;4.40;99.90
44731;DHT22;30458;47.448;19.032;2023-12-07T16:55:56;4.20;99.90
44731;DHT22;30458;47.448;19.032;2023-12-07T17:05:59;4.20;99.90
44731;DHT22;30458;47.448;19.032;2023-12-07T17:16:00;4.20;99.90
44731;DHT22;30458;47.448;19.032;2023-12-07T17:26:00;4.10;99.90
44731;DHT22;30458;47.448;19.032;2023-12-07T17:36:01;4.10;99.90
44731;DHT22;30458;47.448;19.032;2023-12-07T17:46:02;4.10;99.90
44731;DHT22;30458;47.448;19.032;2023-12-07T17:56:06;4.00;99.90
44731;DHT22;30458;47.448;19.032;2023-12-07T18:06:07;4.00;99.90
44731;DHT22;30458;47.448;19.032;2023-12-07T18:16:10;4.00;99.90
44731;DHT22;30458;47.448;19.032;2023-12-07T18:26:13;4.10;99.90
44731;DHT22;30458;47.448;19.032;2023-12-07T18:36:16;4.10;99.90
44731;DHT22;30458;47.448;19.032;2023-12-07T18:46:17;4.10;99.90
44731;DHT22;30458;47.448;19.032;2023-12-07T18:56:17;4.20;99.90
44731;DHT22;30458;47.448;19.032;2023-12-07T19:06:20;4.10;99.90
44731;DHT22;30458;47.448;19.032;2023-12-07T19:16:21;4.20;99.90
44731;DHT22;30458;47.448;19.032;2023-12-07T19:26:22;4.20;99.90
44731;DHT22;30458;47.448;19.032;2023-12-07T19:36:25;4.20;99.90
44731;DHT22;30458;47.448;19.032;2023-12-07T19:46:26;4.30;99.90
44731;DHT22;30458;47.448;19.032;2023-12-07T19:56:35;4.40;99.90
44731;DHT22;30458;47.448;19.032;2023-12-07T20:06:36;4.30;99.90
44731;DHT22;30458;47.448;19.032;2023-12-07T20:16:37;4.40;99.90
44731;DHT22;30458;47.448;19.032;2023-12-07T20:26:38;4.40;99.90
44731;DHT22;30458;47.448;19.032;2023-12-07T20:36:43;4.50;99.90
44731;DHT22;30458;47.448;19.032;2023-12-07T20:46:46;4.40;99.90
44731;DHT22;30458;47.448;19.032;2023-12-07T20:56:47;4.40;99.90
44731;DHT22;30458;47.448;19.032;2023-12-07T21:06:48;4.50;99.90
44731;DHT22;30458;47.448;19.032;2023-12-07T21:16:49;4.50;99.90
44731;DHT22;30458;47.448;19.032;2023-12-07T21:26:49;4.60;99.90
44731;DHT22;30458;47.448;19.032;2023-12-07T21:36:50;4.60;99.90
44731;DHT22;30458;47.448;19.032;2023-12-07T21:46:51;4.50;99.90
44731;DHT22;30458;47.448;19.032;2023-12-07T21:56:55;4.50;99.90
44731;DHT22;30458;47.448;19.032;2023-12-07T22:06:56;4.50;99.90
44731;DHT22;30458;47.448;19.032;2023-12-07T22:16:57;4.50;99.90
44731;DHT22;30458;47.448;19.032;2023-12-07T22:27:00;4.50;99.90
44731;DHT22;30458;47.448;19.032;2023-12-07T22:37:03;4.40;99.90
44731;DHT22;30458;47.448;19.032;2023-12-07T22:47:04;4.30;99.90
44731;DHT22;30458;47.448;19.032;2023-12-07T22:57:07;4.30;99.90
44731;DHT22;30458;47.448;19.032;2023-12-07T23:07:09;4.30;99.90
44731;DHT22;30458;47.448;19.032;2023-12-07T23:17:12;4.00;99.90
44731;DHT22;30458;47.448;19.032;2023-12-07T23:27:13;3.90;99.90
44731;DHT22;30458;47.448;19.032;2023-12-07T23:37:14;4.10;99.90
44731;DHT22;30458;47.448;19.032;2023-12-07T23:47:19;4.20;99.90
44731;DHT22;30458;47.448;19.032;2023-12-07T23:57:20;4.20;99.90
